Coal Valley, Illinois
Current Conditions -  °F | °C
As of 8:52 AM on Saturday 20 Dec 2014 (Local Time) from KMLI Reporting Station
Haze Haze  
Wind Chill: 26°   Ceiling: 4200
Heat Index: 31°   Visibility: 5mi
Dew Point: 25°   Wind: 5mph
Humidity: 79%   Direction: 110°ESE
Pressure: 30.25"   Gusts: NA
Location:  41.43°N, 90.46°W
Report Text: KMLI 201452Z 11004KT 5SM HZ OVC042 M01/M04 A3025 RMK AO2 SLP250 T10061039 53001
Loading
Personal Weather Stations






























Interactive Weather Map New forecast layout! Learn more

10-Day Weather Forecast

Advertisements
Track Severe Weather on mobile